Time;durP1;ratioP1;P1;durP2;ratioP2;P2;SDS_P1;SDS_P2;PMS_P1;PMS_P2;Temp;Humidity;BMP_temperature;BMP_pressure;BME280_temperature;BME280_humidity;BME280_pressure;Samples;Min_cycle;Max_cycle;Signal;HPM_P1;HPM_P2
2023/11/20 19:50:56;;;;;;;;;34.00;32.00;;;;;;;;5102297;27;13474;-71
2023/11/20 19:53:23;;;;;;;;;41.00;36.25;;;;;;;;5123524;28;12246;-71
2023/11/20 19:55:48;;;;;;;;;39.00;33.00;;;;;;;;5105132;28;11534;-72
2023/11/20 19:58:13;;;;;;;;;38.25;31.25;;;;;;;;5108359;28;11623;-70
2023/11/20 20:00:39;;;;;;;;;35.50;31.50;;;;;;;;5105093;28;8815;-69
2023/11/20 20:03:04;;;;;;;;;38.00;32.75;;;;;;;;5107584;28;8839;-69
2023/11/20 20:05:29;;;;;;;;;36.75;32.25;;;;;;;;5107519;28;9513;-69
2023/11/20 20:07:58;;;;;;;;;40.00;35.50;;;;;;;;5107664;28;8796;-69
2023/11/20 20:10:24;;;;;;;;;40.75;34.75;;;;;;;;5107647;28;8868;-72
2023/11/20 20:12:50;;;;;;;;;39.00;34.50;;;;;;;;5107951;28;11471;-71
2023/11/20 20:15:15;;;;;;;;;32.75;30.25;;;;;;;;5106143;28;11447;-72
2023/11/20 20:17:40;;;;;;;;;31.75;29.25;;;;;;;;5120279;27;8785;-72
2023/11/20 20:20:06;;;;;;;;;33.00;30.50;;;;;;;;5110537;27;8843;-69
2023/11/20 20:22:32;;;;;;;;;41.75;32.25;;;;;;;;5109246;28;8788;-69
2023/11/20 20:24:57;;;;;;;;;42.50;32.00;;;;;;;;5107947;28;8815;-70
2023/11/20 20:27:26;;;;;;;;;38.50;33.75;;;;;;;;5107775;28;11516;-70
2023/11/20 20:29:51;;;;;;;;;28.75;27.00;;;;;;;;5107425;28;9599;-73
2023/11/20 20:32:16;;;;;;;;;33.00;31.75;;;;;;;;5105711;28;11443;-72
2023/11/20 20:34:42;;;;;;;;;36.75;30.25;;;;;;;;5099304;28;8780;-72
2023/11/20 20:37:08;;;;;;;;;38.00;34.00;;;;;;;;5107570;28;8853;-72
2023/11/20 20:39:33;;;;;;;;;34.00;31.75;;;;;;;;5108215;28;8808;-73
2023/11/20 20:41:59;;;;;;;;;33.50;30.75;;;;;;;;5108184;28;8824;-72
2023/11/20 20:44:24;;;;;;;;;41.25;37.00;;;;;;;;5107329;28;8884;-72
2023/11/20 20:46:50;;;;;;;;;37.00;33.25;;;;;;;;5112567;27;8777;-72
2023/11/20 20:49:15;;;;;;;;;36.50;32.50;;;;;;;;5127134;27;8835;-72
2023/11/20 20:51:43;;;;;;;;;38.50;33.00;;;;;;;;5126094;27;11237;-73
2023/11/20 20:54:09;;;;;;;;;42.50;34.25;;;;;;;;5126623;27;8797;-73
2023/11/20 20:56:34;;;;;;;;;39.25;37.00;;;;;;;;5126532;27;12202;-73
2023/11/20 20:58:59;;;;;;;;;47.00;37.00;;;;;;;;5127101;27;8801;-72
2023/11/20 21:01:28;;;;;;;;;39.75;36.25;;;;;;;;5117112;28;8856;-72
2023/11/20 21:03:53;;;;;;;;;43.75;37.00;;;;;;;;5113904;28;8778;-71
2023/11/20 21:06:21;;;;;;;;;41.25;36.00;;;;;;;;5113755;28;12021;-72
2023/11/20 21:08:49;;;;;;;;;42.25;35.00;;;;;;;;5105905;28;8869;-72
2023/11/20 21:11:15;;;;;;;;;43.50;37.00;;;;;;;;5093182;28;11437;-72
2023/11/20 21:13:42;;;;;;;;;42.75;37.00;;;;;;;;5095074;28;11491;-72
2023/11/20 21:16:07;;;;;;;;;37.25;35.75;;;;;;;;5093274;28;8810;-72
2023/11/20 21:18:33;;;;;;;;;40.75;34.25;;;;;;;;5094180;28;11426;-72
2023/11/20 21:20:58;;;;;;;;;39.75;35.25;;;;;;;;5093164;28;8788;-72
2023/11/20 21:23:23;;;;;;;;;39.25;33.75;;;;;;;;5093107;28;8796;-75
2023/11/20 21:25:49;;;;;;;;;36.75;33.25;;;;;;;;5092739;28;8768;-72
2023/11/20 21:28:14;;;;;;;;;41.00;36.25;;;;;;;;5091226;28;8839;-73
2023/11/20 21:30:40;;;;;;;;;37.75;33.75;;;;;;;;5092621;28;8835;-71
2023/11/20 21:33:05;;;;;;;;;34.75;31.75;;;;;;;;5093081;28;8884;-72
2023/11/20 21:35:30;;;;;;;;;35.25;34.00;;;;;;;;5092631;28;8834;-72
2023/11/20 21:37:56;;;;;;;;;39.25;35.00;;;;;;;;5093002;28;8776;-73
2023/11/20 21:40:21;;;;;;;;;34.50;31.75;;;;;;;;5092532;28;8873;-72
2023/11/20 21:42:46;;;;;;;;;36.25;32.75;;;;;;;;5092575;28;8792;-72
2023/11/20 21:45:12;;;;;;;;;40.75;35.00;;;;;;;;5093051;28;8784;-72
2023/11/20 21:47:37;;;;;;;;;42.75;36.75;;;;;;;;5091689;28;8815;-72
2023/11/20 21:50:02;;;;;;;;;36.00;34.00;;;;;;;;5091758;28;9550;-72
2023/11/20 21:52:28;;;;;;;;;40.50;36.50;;;;;;;;5092068;28;8803;-72
2023/11/20 21:54:53;;;;;;;;;39.75;35.00;;;;;;;;5091980;28;8892;-72
2023/11/20 21:57:18;;;;;;;;;40.00;34.25;;;;;;;;5091874;28;8991;-73
2023/11/20 21:59:43;;;;;;;;;39.50;35.25;;;;;;;;5091947;28;8816;-72
2023/11/20 22:02:10;;;;;;;;;39.75;37.00;;;;;;;;5092372;28;8800;-72
2023/11/20 22:04:36;;;;;;;;;38.75;34.75;;;;;;;;5092294;28;8909;-72
2023/11/20 22:07:01;;;;;;;;;38.00;35.00;;;;;;;;5090926;28;12201;-74
2023/11/20 22:09:26;;;;;;;;;35.75;34.00;;;;;;;;5092272;28;9564;-74
2023/11/20 22:11:53;;;;;;;;;42.25;38.00;;;;;;;;5091804;28;8784;-74
2023/11/20 22:14:19;;;;;;;;;44.25;39.00;;;;;;;;5092673;28;8804;-74
2023/11/20 22:16:44;;;;;;;;;36.25;35.00;;;;;;;;5091958;28;11503;-74
2023/11/20 22:19:10;;;;;;;;;42.25;37.00;;;;;;;;5091970;28;8799;-74
2023/11/20 22:21:36;;;;;;;;;38.75;36.00;;;;;;;;5090582;28;9533;-74
2023/11/20 22:24:02;;;;;;;;;44.75;38.50;;;;;;;;5090799;28;8811;-74
2023/11/20 22:26:28;;;;;;;;;42.50;36.75;;;;;;;;5089848;28;11554;-74
2023/11/20 22:28:53;;;;;;;;;39.00;34.50;;;;;;;;5091279;28;8878;-74
2023/11/20 22:31:18;;;;;;;;;33.75;30.25;;;;;;;;5091295;28;8799;-73
2023/11/20 22:33:44;;;;;;;;;36.00;34.75;;;;;;;;5085444;28;8826;-74
2023/11/20 22:36:11;;;;;;;;;41.00;34.75;;;;;;;;5071730;28;8795;-72
2023/11/20 22:38:36;;;;;;;;;29.75;26.50;;;;;;;;5071716;28;8790;-71
2023/11/20 22:41:01;;;;;;;;;28.50;26.00;;;;;;;;5071516;28;11483;-71
2023/11/20 22:43:27;;;;;;;;;32.50;29.50;;;;;;;;5071545;28;9830;-73
2023/11/20 22:45:52;;;;;;;;;31.25;30.00;;;;;;;;5072543;28;8876;-73
2023/11/20 22:48:17;;;;;;;;;29.50;26.00;;;;;;;;5091783;28;8787;-73
2023/11/20 22:50:43;;;;;;;;;32.50;30.50;;;;;;;;5091499;28;8888;-73
2023/11/20 22:53:08;;;;;;;;;37.75;32.50;;;;;;;;5090450;28;8889;-72
2023/11/20 22:55:34;;;;;;;;;35.75;31.00;;;;;;;;5090179;28;8816;-73
2023/11/20 22:58:00;;;;;;;;;35.25;30.00;;;;;;;;5091535;28;9643;-72
2023/11/20 23:00:27;;;;;;;;;33.25;28.00;;;;;;;;5091430;28;8894;-72
2023/11/20 23:02:52;;;;;;;;;33.50;31.00;;;;;;;;5091536;28;8784;-72
2023/11/20 23:05:18;;;;;;;;;34.25;30.00;;;;;;;;5091245;28;11461;-71
2023/11/20 23:07:44;;;;;;;;;36.25;34.00;;;;;;;;5091409;28;8911;-70
2023/11/20 23:10:11;;;;;;;;;41.00;36.50;;;;;;;;5091308;28;8842;-71
2023/11/20 23:12:36;;;;;;;;;26.50;26.50;;;;;;;;5091325;28;8792;-72
2023/11/20 23:15:02;;;;;;;;;36.00;32.50;;;;;;;;5091697;28;11489;-71
2023/11/20 23:17:27;;;;;;;;;36.50;34.50;;;;;;;;5092598;28;8784;-71
2023/11/20 23:19:53;;;;;;;;;37.50;28.25;;;;;;;;5091393;28;8776;-72
2023/11/20 23:22:18;;;;;;;;;36.00;31.25;;;;;;;;5091139;28;11536;-72
2023/11/20 23:24:44;;;;;;;;;35.25;33.25;;;;;;;;5089561;28;9567;-72
2023/11/20 23:27:09;;;;;;;;;26.75;26.00;;;;;;;;5091070;28;8810;-73
2023/11/20 23:29:34;;;;;;;;;28.50;27.00;;;;;;;;5090971;28;8844;-72
2023/11/20 23:31:59;;;;;;;;;32.25;31.50;;;;;;;;5090958;28;8776;-73
2023/11/20 23:34:25;;;;;;;;;28.25;25.25;;;;;;;;5090989;28;8809;-72
2023/11/20 23:36:50;;;;;;;;;25.75;24.50;;;;;;;;5090929;28;8776;-72
2023/11/20 23:39:16;;;;;;;;;30.25;27.25;;;;;;;;5090951;28;8795;-72
2023/11/20 23:41:41;;;;;;;;;30.25;28.50;;;;;;;;5090911;28;8900;-72
2023/11/20 23:44:08;;;;;;;;;30.00;28.25;;;;;;;;5090967;28;8783;-72
2023/11/20 23:46:33;;;;;;;;;33.00;29.50;;;;;;;;5093047;28;8806;-72
2023/11/20 23:48:58;;;;;;;;;29.75;27.00;;;;;;;;5090815;28;11477;-72
